Time;durP1;ratioP1;P1;durP2;ratioP2;P2;SDS_P1;SDS_P2;PMS_P1;PMS_P2;Temp;Humidity;BMP_temperature;BMP_pressure;BME280_temperature;BME280_humidity;BME280_pressure;Samples;Min_cycle;Max_cycle;Signal;HPM_P1;HPM_P2
2023/10/06 00:02:31;;;;;;;10.02;5.05;;;14.40;99.90;;;;;;4938587;28;20154;-58
2023/10/06 00:04:57;;;;;;;15.38;5.07;;;14.40;99.90;;;;;;4910353;28;20050;-58
2023/10/06 00:07:24;;;;;;;12.70;4.40;;;14.40;99.90;;;;;;4929792;28;20047;-58
2023/10/06 00:09:53;;;;;;;12.77;4.90;;;14.40;99.90;;;;;;4909991;28;20459;-59
2023/10/06 00:12:19;;;;;;;8.90;4.85;;;14.40;99.90;;;;;;4923653;28;20054;-58
2023/10/06 00:14:48;;;;;;;14.02;5.05;;;14.40;99.90;;;;;;4929563;28;20055;-57
2023/10/06 00:17:15;;;;;;;9.93;5.53;;;14.40;99.90;;;;;;4932715;28;20676;-59
2023/10/06 00:19:42;;;;;;;12.43;4.72;;;14.40;99.90;;;;;;4938065;28;20038;-60
2023/10/06 00:24:48;;;;;;;11.90;4.30;;;14.40;99.90;;;;;;4908210;28;20047;-58
2023/10/06 00:27:20;;;;;;;13.35;4.65;;;14.40;99.90;;;;;;4934656;28;20043;-59
2023/10/06 00:29:54;;;;;;;11.82;6.03;;;14.40;99.90;;;;;;4936049;28;20122;-59
2023/10/06 00:32:27;;;;;;;18.42;6.47;;;14.30;99.90;;;;;;4938424;28;20091;-59
2023/10/06 00:35:17;;;;;;;14.10;6.05;;;14.30;99.90;;;;;;4941052;28;20059;-59
2023/10/06 00:37:43;;;;;;;14.30;6.78;;;14.30;99.90;;;;;;4920909;29;20130;-60
2023/10/06 00:40:24;;;;;;;11.75;6.05;;;14.30;99.90;;;;;;4936731;28;20433;-58
2023/10/06 00:42:56;;;;;;;14.57;6.78;;;14.30;99.90;;;;;;4934760;28;20062;-59
2023/10/06 00:45:24;;;;;;;13.23;6.82;;;14.30;99.90;;;;;;4932972;28;20566;-58
2023/10/06 00:47:53;;;;;;;16.15;6.35;;;14.30;99.90;;;;;;4926589;28;20443;-59
2023/10/06 00:50:24;;;;;;;15.50;6.35;;;14.40;99.90;;;;;;4929527;28;20039;-58
2023/10/06 00:52:50;;;;;;;13.88;5.80;;;14.40;99.90;;;;;;4945055;28;20134;-59
2023/10/06 00:55:18;;;;;;;14.60;7.38;;;14.40;99.90;;;;;;4926037;28;20051;-59
2023/10/06 00:57:52;;;;;;;15.77;6.47;;;14.40;99.90;;;;;;4923475;28;20163;-58
2023/10/06 01:00:22;;;;;;;13.82;7.25;;;14.40;99.90;;;;;;4929811;28;20503;-59
2023/10/06 01:02:49;;;;;;;20.20;7.30;;;14.40;99.90;;;;;;4932849;28;20137;-59
2023/10/06 01:05:16;;;;;;;13.25;6.88;;;14.40;99.90;;;;;;4919651;28;20039;-56
2023/10/06 01:07:47;;;;;;;12.38;5.75;;;14.50;99.90;;;;;;4933086;28;20044;-59
2023/10/06 01:10:27;;;;;;;13.40;5.60;;;14.40;99.90;;;;;;4919087;28;20046;-57
2023/10/06 01:12:54;;;;;;;14.77;5.68;;;14.50;99.90;;;;;;4932377;28;20043;-59
2023/10/06 01:15:20;;;;;;;16.42;6.70;;;14.50;99.90;;;;;;4933954;28;20057;-59
2023/10/06 01:17:47;;;;;;;17.63;6.88;;;14.50;99.90;;;;;;4935996;28;20039;-58
2023/10/06 01:20:29;;;;;;;14.55;6.70;;;14.50;99.90;;;;;;4938813;29;20132;-59
2023/10/06 01:22:56;;;;;;;11.23;6.13;;;14.50;99.90;;;;;;4940400;28;20047;-57
2023/10/06 01:25:24;;;;;;;13.70;6.88;;;14.50;99.90;;;;;;4938590;28;20113;-59
2023/10/06 01:27:52;;;;;;;19.92;6.80;;;14.50;99.90;;;;;;4940868;28;20093;-60
2023/10/06 01:30:19;;;;;;;11.98;5.95;;;14.50;99.90;;;;;;4940587;28;20043;-59
2023/10/06 01:32:50;;;;;;;11.77;6.65;;;14.50;99.90;;;;;;4938409;28;20043;-59
2023/10/06 01:35:26;;;;;;;14.10;6.95;;;14.50;99.90;;;;;;4942376;28;20118;-55
2023/10/06 01:38:00;;;;;;;12.95;6.43;;;14.50;99.90;;;;;;4941764;28;20075;-58
2023/10/06 01:42:52;;;;;;;12.63;6.50;;;14.50;99.90;;;;;;4939396;28;20264;-59
2023/10/06 01:45:21;;;;;;;15.95;6.68;;;14.50;99.90;;;;;;4919945;29;20046;-59
2023/10/06 01:48:22;;;;;;;20.80;6.90;;;14.50;99.90;;;;;;4924345;28;20089;-58
2023/10/06 01:50:50;;;;;;;16.38;6.57;;;14.60;99.90;;;;;;4925768;29;20516;-59
2023/10/06 01:53:19;;;;;;;17.08;7.18;;;14.60;99.90;;;;;;4942088;29;20921;-59
2023/10/06 01:55:49;;;;;;;15.60;7.20;;;14.60;99.90;;;;;;4936242;28;20051;-58
2023/10/06 01:58:15;;;;;;;13.20;7.63;;;14.60;99.90;;;;;;4934071;28;20328;-57
2023/10/06 02:00:44;;;;;;;24.38;8.15;;;14.60;99.90;;;;;;4930137;28;20566;-58
2023/10/06 02:03:11;;;;;;;15.98;8.63;;;14.60;99.90;;;;;;4930578;28;20685;-59
2023/10/06 02:05:39;;;;;;;12.70;6.63;;;14.60;99.90;;;;;;4934637;28;20050;-59
2023/10/06 02:08:20;;;;;;;18.23;8.07;;;14.60;99.90;;;;;;4936758;28;20758;-60
2023/10/06 02:10:47;;;;;;;14.35;7.63;;;14.60;99.90;;;;;;4937465;28;20054;-59
2023/10/06 02:13:19;;;;;;;13.13;6.22;;;14.60;99.90;;;;;;4936989;28;20047;-59
2023/10/06 02:15:45;;;;;;;17.10;9.20;;;14.70;99.90;;;;;;4927746;28;20043;-59
2023/10/06 02:18:12;;;;;;;13.45;7.25;;;14.70;99.90;;;;;;4939626;28;20055;-59
2023/10/06 02:20:41;;;;;;;12.35;6.20;;;14.70;99.90;;;;;;4936816;28;20047;-60
2023/10/06 02:23:07;;;;;;;15.50;6.43;;;14.70;99.90;;;;;;4949159;28;22133;-59
2023/10/06 02:25:33;;;;;;;14.10;6.05;;;14.70;99.90;;;;;;4932444;28;20043;-60
2023/10/06 02:28:04;;;;;;;13.82;6.30;;;14.70;99.90;;;;;;4931755;28;20130;-59
2023/10/06 02:30:40;;;;;;;16.80;7.05;;;14.70;99.90;;;;;;4936392;28;20234;-59
2023/10/06 02:33:06;;;;;;;18.60;6.40;;;14.70;99.90;;;;;;4937497;28;20039;-59
2023/10/06 02:35:35;;;;;;;13.80;6.60;;;14.70;99.90;;;;;;4940781;28;20047;-60
2023/10/06 02:38:05;;;;;;;15.13;6.22;;;14.60;99.90;;;;;;4940510;28;20043;-60
2023/10/06 02:40:43;;;;;;;14.05;6.68;;;14.70;99.90;;;;;;4912481;28;20055;-58
2023/10/06 02:43:11;;;;;;;15.73;6.70;;;14.70;99.90;;;;;;4953322;28;20051;-59
2023/10/06 02:45:43;;;;;;;16.60;6.22;;;14.60;99.90;;;;;;4942513;28;20050;-59
2023/10/06 02:48:16;;;;;;;17.23;5.80;;;14.60;99.90;;;;;;4940291;28;20043;-60
2023/10/06 02:50:45;;;;;;;11.77;6.35;;;14.60;99.90;;;;;;4941965;28;20047;-59
2023/10/06 02:53:14;;;;;;;18.35;7.10;;;14.60;99.90;;;;;;4939732;28;20555;-60
2023/10/06 02:55:43;;;;;;;19.25;7.35;;;14.60;99.90;;;;;;4954551;28;20066;-59
2023/10/06 02:58:34;;;;;;;13.45;6.85;;;14.50;99.90;;;;;;4933631;28;20055;-59
2023/10/06 03:00:58;;;;;;;18.02;7.45;;;14.50;99.90;;;;;;4930778;28;20054;-60
2023/10/06 03:03:27;;;;;;;13.95;6.65;;;14.50;99.90;;;;;;4929260;28;20039;-59
2023/10/06 03:05:55;;;;;;;17.70;6.80;;;14.50;99.90;;;;;;4904549;28;20042;-60
2023/10/06 03:08:27;;;;;;;21.50;7.57;;;14.50;99.90;;;;;;4925521;28;20049;-59
2023/10/06 03:10:53;;;;;;;19.75;8.32;;;14.40;99.90;;;;;;4932288;28;20102;-59
2023/10/06 03:13:31;;;;;;;23.58;8.15;;;14.60;99.90;;;;;;4918836;29;20125;-58
2023/10/06 03:15:57;;;;;;;17.42;8.70;;;14.50;99.90;;;;;;4924408;28;20597;-58
2023/10/06 03:18:23;;;;;;;20.20;9.93;;;14.50;99.90;;;;;;4937520;28;20039;-60
2023/10/06 03:21:13;;;;;;;22.92;10.02;;;14.50;99.90;;;;;;4925911;28;20064;-59
2023/10/06 03:23:39;;;;;;;16.33;8.45;;;14.50;99.90;;;;;;4952177;28;20055;-57
2023/10/06 03:26:14;;;;;;;17.17;8.48;;;14.50;99.90;;;;;;4934348;28;20543;-60
2023/10/06 03:28:43;;;;;;;17.10;9.30;;;14.50;99.90;;;;;;4928532;28;20051;-58
2023/10/06 03:33:44;;;;;;;23.63;9.82;;;14.50;99.90;;;;;;4928879;28;20138;-58
2023/10/06 03:36:21;;;;;;;19.02;10.70;;;14.40;99.90;;;;;;4947170;28;20137;-57
2023/10/06 03:38:56;;;;;;;18.10;9.43;;;14.50;99.90;;;;;;4938163;28;20101;-57
2023/10/06 03:41:37;;;;;;;18.40;9.35;;;14.50;99.90;;;;;;4917491;29;20127;-58
2023/10/06 03:44:06;;;;;;;17.23;8.82;;;14.50;99.90;;;;;;4935264;28;20102;-57
2023/10/06 03:46:37;;;;;;;18.38;9.45;;;14.40;99.90;;;;;;4941708;28;20595;-58
2023/10/06 03:49:04;;;;;;;16.05;8.88;;;14.40;99.90;;;;;;4934690;28;20046;-59
2023/10/06 03:51:40;;;;;;;17.65;8.63;;;14.40;99.90;;;;;;4937827;28;20507;-60
2023/10/06 03:54:07;;;;;;;19.55;8.82;;;14.40;99.90;;;;;;4938638;28;20169;-59
2023/10/06 03:56:33;;;;;;;18.00;9.20;;;14.40;99.90;;;;;;4939093;28;20081;-58
2023/10/06 03:59:00;;;;;;;19.35;9.23;;;14.40;99.90;;;;;;4937042;28;20487;-58
2023/10/06 04:01:26;;;;;;;16.20;9.10;;;14.30;99.90;;;;;;4938840;28;20074;-58
2023/10/06 04:03:58;;;;;;;18.08;9.55;;;14.30;99.90;;;;;;4934442;28;20039;-59
2023/10/06 04:06:25;;;;;;;18.98;9.90;;;14.30;99.90;;;;;;4937932;28;20047;-58
2023/10/06 04:08:57;;;;;;;19.02;10.23;;;14.30;99.90;;;;;;4909289;28;20055;-59
2023/10/06 04:11:22;;;;;;;20.70;9.75;;;14.30;99.90;;;;;;4942582;28;20469;-59
2023/10/06 04:13:48;;;;;;;24.13;10.13;;;14.30;99.90;;;;;;4930386;28;20055;-60
2023/10/06 04:16:14;;;;;;;21.67;10.93;;;14.30;99.90;;;;;;4931308;28;20126;-60
2023/10/06 04:18:40;;;;;;;21.40;11.05;;;14.30;99.90;;;;;;4933392;28;20051;-58
2023/10/06 04:21:11;;;;;;;27.88;11.23;;;14.30;99.90;;;;;;4935160;28;20509;-59
2023/10/06 04:23:41;;;;;;;19.75;10.48;;;14.30;99.90;;;;;;4932431;28;20145;-59
2023/10/06 04:26:09;;;;;;;25.10;10.80;;;14.30;99.90;;;;;;4927027;28;20419;-58
2023/10/06 04:28:36;;;;;;;24.55;11.45;;;14.30;99.90;;;;;;4930120;28;20043;-60
2023/10/06 04:31:01;;;;;;;24.45;10.52;;;14.30;99.90;;;;;;4931608;28;20125;-58
2023/10/06 04:33:30;;;;;;;23.75;10.57;;;14.30;99.90;;;;;;4934282;28;20195;-58
2023/10/06 04:35:56;;;;;;;21.25;10.70;;;14.30;99.90;;;;;;4939230;28;20083;-57
2023/10/06 04:38:23;;;;;;;20.25;10.13;;;14.30;99.90;;;;;;4951783;28;20504;-58
2023/10/06 04:40:49;;;;;;;22.77;10.43;;;14.30;99.90;;;;;;4932647;28;20062;-59
2023/10/06 04:43:17;;;;;;;28.67;11.32;;;14.30;99.90;;;;;;4938553;28;20081;-59
2023/10/06 04:45:47;;;;;;;16.95;10.10;;;14.30;99.90;;;;;;4947578;28;20043;-58
2023/10/06 04:48:15;;;;;;;22.85;10.25;;;14.30;99.90;;;;;;4940435;28;20572;-58
2023/10/06 04:50:44;;;;;;;19.38;10.07;;;14.30;99.90;;;;;;4942259;28;20051;-59
2023/10/06 04:53:11;;;;;;;22.08;10.25;;;14.30;99.90;;;;;;4933572;28;20058;-59
2023/10/06 04:55:38;;;;;;;17.52;9.27;;;14.30;99.90;;;;;;4935789;28;20047;-60
2023/10/06 04:58:15;;;;;;;19.38;8.88;;;14.30;99.90;;;;;;4930860;28;20043;-60
2023/10/06 05:00:49;;;;;;;17.35;8.73;;;14.30;99.90;;;;;;4919376;28;20097;-60
2023/10/06 05:03:15;;;;;;;19.92;9.40;;;14.30;99.90;;;;;;4934679;28;20046;-60
2023/10/06 05:05:42;;;;;;;17.63;8.88;;;14.30;99.90;;;;;;4935154;28;20047;-59
2023/10/06 05:08:09;;;;;;;22.45;10.25;;;14.30;99.90;;;;;;4929446;28;20419;-59
2023/10/06 05:10:37;;;;;;;18.52;8.93;;;14.30;99.90;;;;;;4937347;28;20043;-59
2023/10/06 05:13:06;;;;;;;18.75;8.93;;;14.30;99.90;;;;;;4936364;28;20046;-58
2023/10/06 05:15:35;;;;;;;19.63;8.65;;;14.30;99.90;;;;;;4933500;28;20070;-58
2023/10/06 05:18:04;;;;;;;16.63;8.50;;;14.30;99.90;;;;;;4921092;28;20508;-59
2023/10/06 05:20:32;;;;;;;19.38;8.63;;;14.30;99.90;;;;;;4927412;28;20051;-58
2023/10/06 05:23:09;;;;;;;19.17;9.07;;;14.30;99.90;;;;;;4929223;28;20070;-57
2023/10/06 05:25:42;;;;;;;18.27;8.20;;;14.30;99.90;;;;;;4920827;28;20082;-60
2023/10/06 05:28:10;;;;;;;;;;;14.30;99.90;;;;;;4935070;28;20043;-60
2023/10/06 05:30:37;;;;;;;21.25;7.97;;;14.30;99.90;;;;;;4930417;28;19944;-58
2023/10/06 05:33:04;;;;;;;17.35;8.38;;;14.30;99.90;;;;;;4931676;28;20043;-58
2023/10/06 05:35:38;;;;;;;17.35;8.38;;;14.20;99.90;;;;;;4934894;28;20062;-60
2023/10/06 05:38:13;;;;;;;18.83;8.38;;;14.20;99.90;;;;;;4939751;28;20082;-61
2023/10/06 05:40:49;;;;;;;17.38;7.90;;;14.20;99.90;;;;;;4919666;29;20046;-59
2023/10/06 05:43:16;;;;;;;19.88;8.75;;;14.20;99.90;;;;;;4929265;28;20035;-59
2023/10/06 05:45:51;;;;;;;19.88;8.70;;;14.20;99.90;;;;;;4920789;28;20035;-58
2023/10/06 05:48:21;;;;;;;20.38;8.65;;;14.20;99.90;;;;;;4935255;28;20098;-58
2023/10/06 05:50:48;;;;;;;16.27;8.40;;;14.20;99.90;;;;;;4920329;29;20055;-59
2023/10/06 05:53:22;;;;;;;22.98;8.23;;;14.20;99.90;;;;;;4935150;28;20047;-59
2023/10/06 05:55:49;;;;;;;16.20;7.85;;;14.20;99.90;;;;;;4938027;28;20051;-59
2023/10/06 05:58:19;;;;;;;19.85;8.38;;;14.10;99.90;;;;;;4927612;28;20153;-59
2023/10/06 06:00:52;;;;;;;22.20;8.93;;;14.10;99.90;;;;;;4916799;28;20113;-59
2023/10/06 06:03:21;;;;;;;15.00;7.72;;;14.10;99.90;;;;;;4933136;28;20530;-60
2023/10/06 06:05:48;;;;;;;17.30;7.65;;;14.10;99.90;;;;;;4936441;28;20308;-58
2023/10/06 06:08:14;;;;;;;19.05;8.40;;;14.10;99.90;;;;;;4925057;28;20094;-58
2023/10/06 06:10:40;;;;;;;20.27;8.73;;;14.20;99.90;;;;;;4939324;28;20181;-57
2023/10/06 06:13:07;;;;;;;18.45;8.13;;;14.20;99.90;;;;;;4937935;28;21275;-58
2023/10/06 06:15:35;;;;;;;19.00;8.63;;;14.20;99.90;;;;;;4935271;28;20047;-57
2023/10/06 06:18:01;;;;;;;20.02;8.23;;;14.20;99.90;;;;;;4910669;29;20039;-56
2023/10/06 06:20:30;;;;;;;20.42;8.50;;;14.20;99.90;;;;;;4927868;28;20050;-58
2023/10/06 06:22:59;;;;;;;20.92;8.05;;;14.20;99.90;;;;;;4937622;28;20501;-59
2023/10/06 06:25:31;;;;;;;15.57;7.82;;;14.20;99.90;;;;;;4940431;28;20516;-57
2023/10/06 06:27:59;;;;;;;20.77;8.55;;;14.30;99.90;;;;;;4944394;28;20043;-58
2023/10/06 06:30:28;;;;;;;22.40;8.45;;;14.30;99.90;;;;;;4944302;28;20058;-57
2023/10/06 06:32:54;;;;;;;16.73;7.78;;;14.30;99.90;;;;;;4940460;28;20890;-57
2023/10/06 06:35:24;;;;;;;22.75;8.68;;;14.30;99.90;;;;;;4918210;28;20412;-57
2023/10/06 06:37:56;;;;;;;20.13;8.05;;;14.40;99.90;;;;;;4932218;28;20043;-57
2023/10/06 06:40:22;;;;;;;20.33;8.52;;;14.40;99.90;;;;;;4934118;28;20055;-56
2023/10/06 06:42:55;;;;;;;16.45;8.07;;;14.40;99.90;;;;;;4930785;28;20054;-58
2023/10/06 06:45:20;;;;;;;;;;;14.40;99.90;;;;;;4933620;28;20098;-56
2023/10/06 06:47:46;;;;;;;16.25;8.35;;;14.40;99.90;;;;;;4933100;28;19927;-56
2023/10/06 06:50:15;;;;;;;17.38;8.23;;;14.40;99.90;;;;;;4931084;28;24320;-57
2023/10/06 06:52:42;;;;;;;23.40;9.02;;;14.50;99.90;;;;;;4935033;28;20054;-56
2023/10/06 06:55:15;;;;;;;18.35;7.53;;;14.50;99.90;;;;;;4926708;28;20301;-57
2023/10/06 06:57:46;;;;;;;20.30;7.63;;;14.50;99.90;;;;;;4924995;28;20047;-56
2023/10/06 07:00:17;;;;;;;19.50;8.15;;;14.50;99.90;;;;;;4932452;28;20043;-57
2023/10/06 07:02:44;;;;;;;22.60;7.93;;;14.60;99.90;;;;;;4936078;28;20069;-58
2023/10/06 07:05:14;;;;;;;19.08;8.23;;;14.60;99.90;;;;;;4931028;28;20051;-56
2023/10/06 07:07:44;;;;;;;19.83;7.90;;;14.60;99.90;;;;;;4934723;28;20094;-58
2023/10/06 07:10:15;;;;;;;19.27;8.02;;;14.60;99.90;;;;;;4933822;28;20392;-57
2023/10/06 07:12:44;;;;;;;20.05;8.18;;;14.70;99.90;;;;;;4934153;28;20078;-58
2023/10/06 07:15:17;;;;;;;17.35;7.63;;;14.70;99.90;;;;;;4936818;28;20137;-56
2023/10/06 07:17:48;;;;;;;17.67;7.97;;;14.80;99.90;;;;;;4933904;28;20106;-57
2023/10/06 07:20:19;;;;;;;16.35;8.55;;;14.80;99.90;;;;;;4924922;28;20039;-57
2023/10/06 07:22:46;;;;;;;21.55;7.85;;;14.80;99.90;;;;;;4949207;28;20169;-58
2023/10/06 07:25:15;;;;;;;20.48;7.97;;;14.80;99.90;;;;;;4933523;28;20047;-58
2023/10/06 07:27:43;;;;;;;19.17;8.73;;;14.80;99.90;;;;;;4937087;28;20419;-57
2023/10/06 07:30:10;;;;;;;22.77;8.35;;;14.80;99.90;;;;;;4934094;28;20054;-58
2023/10/06 07:32:43;;;;;;;23.92;8.55;;;14.80;99.90;;;;;;4929501;28;20054;-57
2023/10/06 07:35:13;;;;;;;20.63;8.57;;;14.90;99.90;;;;;;4932062;28;20519;-56
2023/10/06 07:37:43;;;;;;;21.65;8.38;;;14.90;99.90;;;;;;4936414;28;20061;-57
2023/10/06 07:40:13;;;;;;;19.55;8.07;;;14.90;99.90;;;;;;4934543;28;20242;-57
2023/10/06 07:42:46;;;;;;;16.17;7.88;;;14.90;99.90;;;;;;4932328;28;20399;-58
2023/10/06 07:45:12;;;;;;;21.13;8.50;;;15.00;99.90;;;;;;4935098;28;20134;-57
2023/10/06 07:47:39;;;;;;;23.15;8.70;;;15.00;99.90;;;;;;4934007;28;20158;-57
2023/10/06 07:50:06;;;;;;;16.58;8.38;;;15.00;99.90;;;;;;4933547;28;20051;-56
2023/10/06 07:52:33;;;;;;;17.63;8.43;;;15.00;99.90;;;;;;4932511;28;20598;-58
2023/10/06 07:55:00;;;;;;;20.27;8.98;;;15.00;99.90;;;;;;4930511;28;20058;-57
2023/10/06 07:57:31;;;;;;;22.67;8.82;;;15.00;99.90;;;;;;4934100;28;20039;-57
2023/10/06 08:00:04;;;;;;;18.17;8.30;;;15.00;99.90;;;;;;4934054;28;20509;-57
2023/10/06 08:02:29;;;;;;;21.40;8.88;;;15.10;99.90;;;;;;4931602;28;20106;-57
2023/10/06 08:04:55;;;;;;;18.73;8.90;;;15.10;99.90;;;;;;4930848;28;20043;-57
2023/10/06 08:07:27;;;;;;;24.58;9.05;;;15.10;99.90;;;;;;4930872;28;20412;-57
2023/10/06 08:10:02;;;;;;;18.85;9.25;;;15.20;99.90;;;;;;4934893;28;20043;-57
2023/10/06 08:12:28;;;;;;;19.50;9.10;;;15.20;99.90;;;;;;4934180;28;20058;-56
2023/10/06 08:14:54;;;;;;;25.67;9.88;;;15.20;99.90;;;;;;4931817;28;20055;-58
2023/10/06 08:17:20;;;;;;;21.02;9.02;;;15.30;99.90;;;;;;4930128;28;20102;-57
2023/10/06 08:19:46;;;;;;;21.50;9.55;;;15.30;99.90;;;;;;4932675;28;20047;-56
2023/10/06 08:22:13;;;;;;;22.63;8.45;;;15.40;99.90;;;;;;4932476;28;20043;-58
2023/10/06 08:24:39;;;;;;;24.23;9.02;;;15.40;99.90;;;;;;4911722;28;20085;-54
2023/10/06 08:27:07;;;;;;;15.82;8.63;;;15.50;99.90;;;;;;4926903;28;20047;-58
2023/10/06 08:29:33;;;;;;;19.45;8.07;;;15.60;99.90;;;;;;4916430;28;20047;-58
2023/10/06 08:31:59;;;;;;;22.15;8.48;;;15.60;99.90;;;;;;4932129;28;20085;-56
2023/10/06 08:34:27;;;;;;;17.52;7.97;;;15.60;99.90;;;;;;4933441;28;20055;-57
2023/10/06 08:36:53;;;;;;;22.02;8.45;;;15.70;99.90;;;;;;4939736;28;20351;-55
2023/10/06 08:39:20;;;;;;;19.65;7.45;;;15.80;99.90;;;;;;4966888;28;20091;-58
2023/10/06 08:41:49;;;;;;;19.98;8.13;;;15.80;99.90;;;;;;4950846;28;20047;-59
2023/10/06 08:44:19;;;;;;;22.17;7.78;;;15.80;99.90;;;;;;4964102;28;20042;-59
2023/10/06 08:46:44;;;;;;;22.35;7.57;;;16.00;99.90;;;;;;4945226;28;20053;-58
2023/10/06 08:49:11;;;;;;;22.55;7.85;;;16.00;99.90;;;;;;4947560;28;20039;-56
2023/10/06 08:51:40;;;;;;;16.88;7.03;;;16.10;99.90;;;;;;4952083;28;20082;-57
2023/10/06 08:54:13;;;;;;;16.98;7.35;;;16.20;99.90;;;;;;4953368;28;20034;-58
2023/10/06 08:56:39;;;;;;;16.90;6.80;;;16.30;99.90;;;;;;4951296;28;20088;-58
2023/10/06 08:59:05;;;;;;;17.67;7.38;;;16.30;99.90;;;;;;4949563;28;20058;-58
2023/10/06 09:01:32;;;;;;;19.27;7.25;;;16.40;99.90;;;;;;4950592;28;20093;-58
2023/10/06 09:04:04;;;;;;;15.85;7.68;;;16.40;99.90;;;;;;4920393;28;20135;-59
2023/10/06 09:06:31;;;;;;;15.48;6.35;;;16.50;99.90;;;;;;4955283;28;20047;-59
2023/10/06 09:08:57;;;;;;;19.75;6.72;;;16.50;99.90;;;;;;4952441;28;20462;-57
2023/10/06 09:11:41;;;;;;;19.02;7.00;;;16.50;99.90;;;;;;4954993;28;20092;-58
2023/10/06 09:14:07;;;;;;;21.63;6.55;;;16.50;99.90;;;;;;4931822;28;20109;-57
2023/10/06 09:16:49;;;;;;;15.25;6.55;;;16.60;99.90;;;;;;4950527;28;20046;-58
2023/10/06 09:19:15;;;;;;;16.65;6.50;;;16.60;99.90;;;;;;4947732;28;20578;-58
2023/10/06 09:22:06;;;;;;;15.85;6.00;;;16.60;99.90;;;;;;4955006;28;20042;-57
2023/10/06 09:24:33;;;;;;;18.90;6.60;;;16.70;99.90;;;;;;4956429;28;20080;-58
2023/10/06 09:26:58;;;;;;;19.98;6.32;;;16.70;99.90;;;;;;4951652;28;20510;-58
2023/10/06 09:29:36;;;;;;;17.55;6.03;;;16.80;99.90;;;;;;4946480;28;20085;-56
2023/10/06 09:32:19;;;;;;;18.13;6.10;;;16.80;99.90;;;;;;4951191;28;20081;-58
2023/10/06 09:34:45;;;;;;;19.33;6.28;;;16.90;99.90;;;;;;4952958;28;20129;-57
2023/10/06 09:37:20;;;;;;;19.42;5.70;;;17.00;99.90;;;;;;4950739;28;20565;-58
2023/10/06 09:40:10;;;;;;;19.75;6.15;;;17.00;99.90;;;;;;4942983;28;20047;-57
2023/10/06 09:42:36;;;;;;;17.75;5.93;;;17.10;99.90;;;;;;4957081;28;20049;-57
2023/10/06 09:45:07;;;;;;;18.17;5.90;;;17.20;99.90;;;;;;4953447;28;20043;-58
2023/10/06 09:47:42;;;;;;;20.70;5.95;;;17.30;99.90;;;;;;4956330;28;20549;-59
2023/10/06 09:50:09;;;;;;;18.20;5.60;;;17.30;99.90;;;;;;4955560;28;20110;-57
2023/10/06 09:52:42;;;;;;;15.02;4.85;;;17.30;99.90;;;;;;4952428;28;20073;-58
2023/10/06 09:55:08;;;;;;;;;;;17.40;99.90;;;;;;4953515;28;20062;-57
2023/10/06 09:57:35;;;;;;;17.92;5.82;;;17.40;99.90;;;;;;4956601;28;19979;-58
2023/10/06 10:00:00;;;;;;;19.40;5.80;;;17.40;99.90;;;;;;4953383;28;20065;-58
2023/10/06 10:02:29;;;;;;;16.75;6.03;;;17.50;99.90;;;;;;4950834;28;20062;-57
2023/10/06 10:04:59;;;;;;;19.85;5.53;;;17.50;99.90;;;;;;4957003;28;20049;-57
2023/10/06 10:07:28;;;;;;;17.30;5.55;;;17.60;99.90;;;;;;4964125;28;20118;-58
2023/10/06 10:09:56;;;;;;;20.00;6.07;;;17.60;99.90;;;;;;4964809;28;20045;-56
2023/10/06 10:12:23;;;;;;;24.10;5.68;;;17.70;99.90;;;;;;4965229;28;20442;-58
2023/10/06 10:14:59;;;;;;;20.40;5.93;;;17.70;99.90;;;;;;4961812;28;20047;-58
2023/10/06 10:18:05;;;;;;;16.52;6.07;;;17.80;99.90;;;;;;4945405;28;20044;-57
2023/10/06 10:20:32;;;;;;;16.88;5.78;;;17.80;99.90;;;;;;4918910;28;20515;-58
2023/10/06 10:23:00;;;;;;;16.38;5.97;;;17.80;99.90;;;;;;4954233;28;20046;-56
2023/10/06 10:25:29;;;;;;;17.58;6.38;;;17.80;99.90;;;;;;4954855;28;21987;-59
2023/10/06 10:28:17;;;;;;;29.65;6.15;;;18.00;99.90;;;;;;4964029;28;20078;-57
2023/10/06 10:30:53;;;;;;;17.35;5.95;;;18.10;99.90;;;;;;4965218;28;20094;-58
2023/10/06 10:33:24;;;;;;;15.90;5.63;;;18.20;99.90;;;;;;4977544;28;20053;-58
2023/10/06 10:36:14;;;;;;;17.63;5.25;;;18.20;99.90;;;;;;4956022;28;20046;-58
2023/10/06 10:38:44;;;;;;;23.40;6.00;;;18.30;99.90;;;;;;4957781;28;20503;-58
2023/10/06 10:41:10;;;;;;;17.23;6.05;;;18.30;99.90;;;;;;4959391;28;20039;-58
2023/10/06 10:43:48;;;;;;;16.35;5.13;;;18.30;99.90;;;;;;4964173;28;20551;-58
2023/10/06 10:46:30;;;;;;;20.08;6.07;;;18.30;99.90;;;;;;4959914;28;20638;-59
2023/10/06 10:48:58;;;;;;;15.45;5.75;;;18.30;99.90;;;;;;4961723;28;20043;-58
2023/10/06 10:51:24;;;;;;;14.80;4.90;;;18.30;99.90;;;;;;4958425;28;20475;-58
2023/10/06 10:53:52;;;;;;;14.93;5.18;;;18.40;99.90;;;;;;4956193;28;20039;-57
2023/10/06 10:56:36;;;;;;;16.27;5.55;;;18.40;99.90;;;;;;4964961;28;20046;-58
2023/10/06 10:59:03;;;;;;;14.13;5.45;;;18.50;99.90;;;;;;4946385;28;20113;-58
2023/10/06 11:01:33;;;;;;;16.05;4.57;;;18.70;99.90;;;;;;4964530;28;20046;-59
2023/10/06 11:06:55;;;;;;;19.13;5.13;;;18.90;99.90;;;;;;4948690;28;20050;-58
2023/10/06 11:09:29;;;;;;;17.58;5.22;;;19.10;99.90;;;;;;4964897;28;20038;-58
2023/10/06 11:12:17;;;;;;;20.33;4.57;;;19.20;99.90;;;;;;4949462;28;20054;-59
2023/10/06 11:14:43;;;;;;;19.88;4.70;;;19.30;99.90;;;;;;4955345;28;20054;-59
2023/10/06 11:17:11;;;;;;;15.43;4.38;;;19.30;99.90;;;;;;4953304;28;20046;-57
2023/10/06 11:19:38;;;;;;;18.60;4.38;;;19.40;99.90;;;;;;4957067;28;20062;-58
2023/10/06 11:22:11;;;;;;;16.73;4.50;;;19.40;99.90;;;;;;4956734;28;20451;-57
2023/10/06 11:24:40;;;;;;;16.77;4.80;;;19.30;99.90;;;;;;4957254;28;20138;-57
2023/10/06 11:27:22;;;;;;;16.63;4.40;;;19.30;99.90;;;;;;4953051;28;20490;-57
2023/10/06 11:29:52;;;;;;;16.85;3.78;;;19.30;99.90;;;;;;4952547;28;20042;-57
2023/10/06 11:32:19;;;;;;;16.60;4.07;;;19.40;99.90;;;;;;4952774;28;20061;-58
2023/10/06 11:34:46;;;;;;;18.15;4.30;;;19.40;99.90;;;;;;4954074;28;20548;-58
2023/10/06 11:37:12;;;;;;;14.85;4.05;;;19.50;99.90;;;;;;4955919;28;20074;-57
2023/10/06 11:39:39;;;;;;;16.10;4.15;;;19.50;99.90;;;;;;4958769;28;20442;-57
2023/10/06 11:42:23;;;;;;;16.23;3.72;;;19.50;99.90;;;;;;4939765;28;20054;-59
2023/10/06 11:44:53;;;;;;;21.00;4.40;;;19.50;99.90;;;;;;4953554;28;20039;-59
2023/10/06 11:47:21;;;;;;;13.88;3.75;;;19.70;99.90;;;;;;4955478;28;20053;-58
2023/10/06 11:49:53;;;;;;;11.48;3.58;;;19.70;99.90;;;;;;4936811;28;20415;-59
2023/10/06 11:52:19;;;;;;;21.40;4.03;;;19.80;99.90;;;;;;4956681;28;20050;-60
2023/10/06 11:54:46;;;;;;;16.13;4.20;;;19.90;99.90;;;;;;4940917;28;20050;-59
2023/10/06 11:57:13;;;;;;;14.98;4.75;;;19.90;99.90;;;;;;4959334;28;20545;-60
2023/10/06 11:59:48;;;;;;;12.23;4.07;;;19.90;99.90;;;;;;4959754;28;20050;-60
2023/10/06 12:02:15;;;;;;;14.93;3.80;;;20.00;99.90;;;;;;4957275;28;20046;-60
2023/10/06 12:04:40;;;;;;;17.17;3.60;;;20.10;99.90;;;;;;4955321;28;20054;-58
2023/10/06 12:07:08;;;;;;;10.68;2.92;;;20.30;99.90;;;;;;4959606;28;20042;-59
2023/10/06 12:09:35;;;;;;;15.05;4.10;;;20.50;99.90;;;;;;4944200;28;20054;-59
2023/10/06 12:12:01;;;;;;;14.45;3.85;;;20.70;99.90;;;;;;4946729;28;20055;-60
2023/10/06 12:14:28;;;;;;;17.20;4.25;;;20.70;99.90;;;;;;4959749;28;20085;-60
2023/10/06 12:16:56;;;;;;;14.43;3.85;;;20.80;99.90;;;;;;4959667;28;20046;-59
2023/10/06 12:19:23;;;;;;;14.40;3.20;;;20.90;99.90;;;;;;4958552;28;20086;-61
2023/10/06 12:21:50;;;;;;;15.32;3.30;;;21.10;99.90;;;;;;4950969;28;20700;-59
2023/10/06 12:24:16;;;;;;;12.05;3.17;;;21.30;99.90;;;;;;4960378;28;20061;-59
2023/10/06 12:26:46;;;;;;;12.85;3.55;;;21.30;99.90;;;;;;4957988;28;20625;-61
2023/10/06 12:29:17;;;;;;;15.73;3.60;;;21.40;99.90;;;;;;4960005;28;20066;-60
2023/10/06 12:31:47;;;;;;;12.32;3.33;;;21.50;99.90;;;;;;4960243;28;20447;-60
2023/10/06 12:34:16;;;;;;;13.95;3.30;;;21.60;99.90;;;;;;4963767;28;20182;-59
2023/10/06 12:36:47;;;;;;;19.55;3.90;;;21.50;99.90;;;;;;4962181;28;20089;-60
2023/10/06 12:39:30;;;;;;;17.52;3.45;;;21.40;99.90;;;;;;4960752;28;20051;-61
2023/10/06 12:41:59;;;;;;;12.93;3.55;;;21.30;99.90;;;;;;4961122;28;20055;-60
2023/10/06 12:44:28;;;;;;;15.77;3.60;;;21.20;99.90;;;;;;4942805;28;20058;-60
2023/10/06 12:46:55;;;;;;;15.20;3.50;;;21.00;99.90;;;;;;4960357;28;20181;-60
2023/10/06 12:49:23;;;;;;;15.13;2.92;;;20.80;99.90;;;;;;4960130;28;20055;-58
2023/10/06 12:51:52;;;;;;;10.27;2.97;;;20.70;99.90;;;;;;4957151;28;20399;-58
2023/10/06 12:54:19;;;;;;;14.93;3.80;;;20.50;99.90;;;;;;4959468;28;20043;-60
2023/10/06 12:56:46;;;;;;;12.57;3.38;;;20.40;99.90;;;;;;4959297;28;20125;-60
2023/10/06 12:59:12;;;;;;;14.10;3.30;;;20.30;99.90;;;;;;4955481;28;20078;-60
2023/10/06 13:01:38;;;;;;;19.33;3.53;;;20.20;99.90;;;;;;4935948;28;20153;-59
2023/10/06 13:04:05;;;;;;;13.23;3.30;;;20.10;99.90;;;;;;4953754;28;20046;-58